createdAt,value
2022-09-10T00:00:40.596Z,16.65
2022-09-10T00:03:07.488Z,16.68
2022-09-10T00:05:41.870Z,16.62
2022-09-10T00:08:08.687Z,16.62
2022-09-10T00:10:45.788Z,16.62
2022-09-10T00:13:13.414Z,16.62
2022-09-10T00:15:41.651Z,16.64
2022-09-10T00:18:09.386Z,16.64
2022-09-10T00:20:47.850Z,16.78
2022-09-10T00:23:15.814Z,16.68
2022-09-10T00:25:42.779Z,16.69
2022-09-10T00:28:09.504Z,16.67
2022-09-10T00:30:47.692Z,16.71
2022-09-10T00:33:15.326Z,16.72
2022-09-10T00:35:42.001Z,16.72
2022-09-10T00:38:10.395Z,16.75
2022-09-10T00:40:37.548Z,16.65
2022-09-10T00:43:18.663Z,16.73
2022-09-10T00:45:49.826Z,16.64
2022-09-10T00:48:30.401Z,16.59
2022-09-10T00:51:04.438Z,16.62
2022-09-10T00:53:30.959Z,16.42
2022-09-10T00:56:04.566Z,16.34
2022-09-10T00:58:31.842Z,16.40
2022-09-10T01:01:01.706Z,16.32
2022-09-10T01:03:30.172Z,16.22
2022-09-10T01:05:57.310Z,16.27
2022-09-10T01:08:24.554Z,16.17
2022-09-10T01:11:06.933Z,16.17
2022-09-10T01:13:47.998Z,16.24
2022-09-10T01:16:20.783Z,16.17
2022-09-10T01:19:22.624Z,15.89
2022-09-10T01:22:10.428Z,15.67
2022-09-10T01:25:03.807Z,15.52
2022-09-10T01:27:33.229Z,15.45
2022-09-10T01:30:07.111Z,15.53
2022-09-10T01:32:44.919Z,15.53
2022-09-10T01:35:22.484Z,15.36
2022-09-10T01:37:54.215Z,15.28
2022-09-10T01:40:29.581Z,15.31
2022-09-10T01:43:10.770Z,15.27
2022-09-10T01:45:52.259Z,15.31
2022-09-10T01:48:34.859Z,15.36
2022-09-10T01:51:11.562Z,15.41
2022-09-10T01:53:40.681Z,15.41
2022-09-10T01:56:35.914Z,15.42
2022-09-10T01:59:39.923Z,15.41
2022-09-10T02:02:37.043Z,15.39
2022-09-10T02:05:06.210Z,15.34
2022-09-10T02:07:35.015Z,15.36
2022-09-10T02:10:04.060Z,15.36
2022-09-10T02:12:30.503Z,15.35
2022-09-10T02:14:58.178Z,15.39
2022-09-10T02:17:35.550Z,15.36
2022-09-10T02:20:04.846Z,15.36
2022-09-10T02:22:36.145Z,15.35
2022-09-10T02:25:04.381Z,15.39
2022-09-10T02:27:30.977Z,15.38
2022-09-10T02:29:57.804Z,15.38
2022-09-10T02:32:24.286Z,15.39
2022-09-10T02:34:50.670Z,15.48
2022-09-10T02:37:17.056Z,15.53
2022-09-10T02:39:45.377Z,15.58
2022-09-10T02:42:17.594Z,15.56
2022-09-10T02:44:44.867Z,15.55
2022-09-10T02:47:11.369Z,15.61
2022-09-10T02:49:37.713Z,15.63
2022-09-10T02:52:04.779Z,15.72
2022-09-10T02:54:31.331Z,15.72
2022-09-10T02:56:57.739Z,15.69
2022-09-10T02:59:25.033Z,15.69
2022-09-10T03:01:51.857Z,15.74
2022-09-10T03:04:18.309Z,15.74
2022-09-10T03:06:44.816Z,15.72
2022-09-10T03:09:11.213Z,15.74
2022-09-10T03:11:40.642Z,15.76
2022-09-10T03:14:10.400Z,15.74
2022-09-10T03:16:36.848Z,15.90
2022-09-10T03:19:03.687Z,15.85
2022-09-10T03:21:30.188Z,15.83
2022-09-10T03:23:57.185Z,15.76
2022-09-10T03:26:27.292Z,15.83
2022-09-10T03:28:53.847Z,15.85
2022-09-10T03:31:21.642Z,15.91
2022-09-10T03:33:49.123Z,15.99
2022-09-10T03:36:16.046Z,15.97
2022-09-10T03:38:42.486Z,15.86
2022-09-10T03:41:09.244Z,15.80
2022-09-10T03:43:35.834Z,15.82
2022-09-10T03:46:02.694Z,15.82
2022-09-10T03:48:29.833Z,15.73
2022-09-10T03:50:56.360Z,15.72
2022-09-10T03:53:23.830Z,15.72
2022-09-10T03:55:51.786Z,15.79
2022-09-10T03:58:18.529Z,15.77
2022-09-10T04:00:46.584Z,15.77
2022-09-10T04:03:14.448Z,15.76
2022-09-10T04:05:43.979Z,15.76
2022-09-10T04:08:11.609Z,15.80
2022-09-10T04:10:39.315Z,15.83
2022-09-10T04:13:05.794Z,15.89
2022-09-10T04:15:32.478Z,15.94
2022-09-10T04:17:58.918Z,15.93
2022-09-10T04:20:25.444Z,15.91
2022-09-10T04:22:52.670Z,15.96
2022-09-10T04:25:19.870Z,15.97
2022-09-10T04:27:47.307Z,15.97
2022-09-10T04:30:14.363Z,16.04
2022-09-10T04:32:40.921Z,16.01
2022-09-10T04:35:08.039Z,15.99
2022-09-10T04:37:34.959Z,15.94
2022-09-10T04:40:01.672Z,15.80
2022-09-10T04:42:28.369Z,15.73
2022-09-10T04:44:54.838Z,15.69
2022-09-10T04:47:21.258Z,15.72
2022-09-10T04:49:47.779Z,15.63
2022-09-10T04:52:17.054Z,15.67
2022-09-10T04:54:43.498Z,15.66
2022-09-10T04:57:09.944Z,15.70
2022-09-10T04:59:36.386Z,15.70
2022-09-10T05:02:03.742Z,15.69
2022-09-10T05:04:30.311Z,15.63
2022-09-10T05:06:57.793Z,15.65
2022-09-10T05:09:24.456Z,15.65
2022-09-10T05:11:50.893Z,15.66
2022-09-10T05:14:17.379Z,15.69
2022-09-10T05:16:44.475Z,15.74
2022-09-10T05:19:17.870Z,15.79
2022-09-10T05:21:45.134Z,15.86
2022-09-10T05:24:12.226Z,15.91
2022-09-10T05:26:39.956Z,16.03
2022-09-10T05:29:06.658Z,16.14
2022-09-10T05:31:35.142Z,16.24
2022-09-10T05:34:01.839Z,16.27
2022-09-10T05:36:29.268Z,16.24
2022-09-10T05:38:55.691Z,16.28
2022-09-10T05:41:23.489Z,16.31
2022-09-10T05:43:50.014Z,16.37
2022-09-10T05:46:16.574Z,16.25
2022-09-10T05:48:43.277Z,16.34
2022-09-10T05:51:09.778Z,16.20
2022-09-10T05:53:36.261Z,16.13
2022-09-10T05:56:02.866Z,16.09
2022-09-10T05:58:30.161Z,15.93
2022-09-10T06:00:58.055Z,16.01
2022-09-10T06:03:24.695Z,16.00
2022-09-10T06:05:51.905Z,15.90
2022-09-10T06:08:20.991Z,15.86
2022-09-10T06:10:58.782Z,15.83
2022-09-10T06:13:25.286Z,15.76
2022-09-10T06:15:52.083Z,15.74
2022-09-10T06:18:20.225Z,15.79
2022-09-10T06:20:48.134Z,15.73
2022-09-10T06:23:18.193Z,15.72
2022-09-10T06:25:44.862Z,15.82
2022-09-10T06:28:12.545Z,15.80
2022-09-10T06:32:39.915Z,15.77
2022-09-10T06:35:06.470Z,15.74
2022-09-10T06:37:34.393Z,15.79
2022-09-10T06:40:01.249Z,15.87
2022-09-10T06:42:27.725Z,15.77
2022-09-10T06:44:54.264Z,15.82
2022-09-10T06:47:55.736Z,15.74
2022-09-10T06:50:08.834Z,15.79
2022-09-10T06:52:35.667Z,15.82
2022-09-10T06:55:02.013Z,15.85
2022-09-10T06:57:29.296Z,15.80
2022-09-10T06:59:56.217Z,15.82
2022-09-10T07:02:22.726Z,15.74
2022-09-10T07:04:49.143Z,15.77
2022-09-10T07:07:15.551Z,15.76
2022-09-10T07:09:42.026Z,15.85
2022-09-10T07:12:09.357Z,15.91
2022-09-10T07:14:35.772Z,15.94
2022-09-10T07:17:02.426Z,15.97
2022-09-10T07:19:30.747Z,15.99
2022-09-10T07:21:57.331Z,16.03
2022-09-10T07:24:23.791Z,16.06
2022-09-10T07:26:50.272Z,16.01
2022-09-10T07:29:18.204Z,15.99
2022-09-10T07:31:45.867Z,15.94
2022-09-10T07:34:12.650Z,15.96
2022-09-10T07:36:39.014Z,15.96
2022-09-10T07:39:05.373Z,15.99
2022-09-10T07:41:34.705Z,15.94
2022-09-10T07:44:01.113Z,15.89
2022-09-10T07:46:28.365Z,15.85
2022-09-10T07:48:57.556Z,15.91
2022-09-10T07:51:25.933Z,15.94
2022-09-10T07:53:54.306Z,15.97
2022-09-10T07:56:21.098Z,16.03
2022-09-10T07:58:47.505Z,16.18
2022-09-10T08:01:14.090Z,16.17
2022-09-10T08:03:41.035Z,16.21
2022-09-10T08:06:09.072Z,16.18
2022-09-10T08:08:38.290Z,16.21
2022-09-10T08:11:12.937Z,16.07
2022-09-10T08:13:41.456Z,16.01
2022-09-10T08:16:09.776Z,16.03
2022-09-10T08:18:36.391Z,16.03
2022-09-10T08:21:05.046Z,16.07
2022-09-10T08:23:31.724Z,16.04
2022-09-10T08:25:58.277Z,16.22
2022-09-10T08:28:27.184Z,16.25
2022-09-10T08:30:59.107Z,16.38
2022-09-10T08:33:25.818Z,16.44
2022-09-10T08:35:57.012Z,16.49
2022-09-10T08:38:31.050Z,16.65
2022-09-10T08:41:00.696Z,16.68
2022-09-10T08:43:35.177Z,16.76
2022-09-10T08:46:10.074Z,16.79
2022-09-10T08:48:39.733Z,16.82
2022-09-10T08:51:18.686Z,16.90
2022-09-10T08:54:02.648Z,16.96
2022-09-10T08:56:30.514Z,17.04
2022-09-10T08:59:33.443Z,17.16
2022-09-10T09:02:47.222Z,17.27
2022-09-10T09:05:17.829Z,17.31
2022-09-10T09:07:45.130Z,17.40
2022-09-10T09:10:20.950Z,17.50
2022-09-10T09:13:02.804Z,17.61
2022-09-10T09:16:14.759Z,17.68
2022-09-10T09:19:03.114Z,17.61
2022-09-10T09:21:50.332Z,17.68
2022-09-10T09:24:42.754Z,17.55
2022-09-10T09:27:15.095Z,17.50
2022-09-10T09:29:47.680Z,17.43
2022-09-10T09:32:17.758Z,17.44
2022-09-10T09:35:00.826Z,17.43
2022-09-10T09:37:30.180Z,17.33
2022-09-10T09:40:28.418Z,17.33
2022-09-10T09:42:59.288Z,17.26
2022-09-10T09:45:43.711Z,17.16
2022-09-10T09:48:16.291Z,17.02
2022-09-10T09:50:45.613Z,17.04
2022-09-10T09:53:21.114Z,16.98
2022-09-10T09:55:51.598Z,17.04
2022-09-10T09:58:20.898Z,16.90
2022-09-10T10:00:49.857Z,16.71
2022-09-10T10:03:22.414Z,16.65
2022-09-10T10:05:48.846Z,16.54
2022-09-10T10:08:28.819Z,16.54
2022-09-10T10:10:55.836Z,16.54
2022-09-10T10:13:22.772Z,16.61
2022-09-10T10:15:50.680Z,16.64
2022-09-10T10:18:22.884Z,16.76
2022-09-10T10:21:11.457Z,16.71
2022-09-10T10:23:38.511Z,16.68
2022-09-10T10:26:23.220Z,16.72
2022-09-10T10:29:06.339Z,16.69
2022-09-10T10:31:44.807Z,16.64
2022-09-10T10:34:17.008Z,16.68
2022-09-10T10:37:27.870Z,16.71
2022-09-10T10:40:06.480Z,16.85
2022-09-10T10:42:35.627Z,16.99
2022-09-10T10:45:31.057Z,17.13
2022-09-10T10:48:32.778Z,17.14
2022-09-10T10:51:26.990Z,17.26
2022-09-10T10:54:30.925Z,17.53
2022-09-10T10:57:41.728Z,17.77
2022-09-10T11:00:15.566Z,17.62
2022-09-10T11:02:59.011Z,17.71
2022-09-10T11:05:32.436Z,17.38
2022-09-10T11:08:01.851Z,17.34
2022-09-10T11:10:34.186Z,17.33
2022-09-10T11:13:06.905Z,17.31
2022-09-10T11:15:47.494Z,17.33
2022-09-10T11:18:34.929Z,17.26
2022-09-10T11:21:29.776Z,17.07
2022-09-10T11:24:01.718Z,17.06
2022-09-10T11:26:34.872Z,16.80
2022-09-10T11:29:16.821Z,16.62
2022-09-10T11:31:47.638Z,16.38
2022-09-10T11:34:28.138Z,16.28
2022-09-10T11:37:12.287Z,16.28
2022-09-10T11:39:46.519Z,16.42
2022-09-10T11:42:21.271Z,16.49
2022-09-10T11:45:16.142Z,16.68
2022-09-10T11:47:50.929Z,16.82
2022-09-10T11:50:37.343Z,16.78
2022-09-10T11:53:07.559Z,16.88
2022-09-10T11:56:09.322Z,16.88
2022-09-10T11:58:44.728Z,16.90
2022-09-10T12:01:36.862Z,16.95
2022-09-10T12:04:39.346Z,17.00
2022-09-10T12:07:42.252Z,17.16
2022-09-10T12:10:28.061Z,17.16
2022-09-10T12:12:54.505Z,17.03
2022-09-10T12:15:34.452Z,17.04
2022-09-10T12:18:07.338Z,17.03
2022-09-10T12:20:43.086Z,17.03
2022-09-10T12:23:18.639Z,17.02
2022-09-10T12:25:45.434Z,16.67
2022-09-10T12:28:45.324Z,16.44
2022-09-10T12:31:15.334Z,16.37
2022-09-10T12:33:44.777Z,16.45
2022-09-10T12:36:26.495Z,16.40
2022-09-10T12:39:25.894Z,16.45
2022-09-10T12:41:53.055Z,16.48
2022-09-10T12:44:42.487Z,16.45
2022-09-10T12:47:14.983Z,16.31
2022-09-10T12:50:00.821Z,16.28
2022-09-10T12:52:49.041Z,16.27
2022-09-10T12:55:22.769Z,16.20
2022-09-10T12:58:02.509Z,16.30
2022-09-10T13:00:54.976Z,16.42
2022-09-10T13:03:23.374Z,16.32
2022-09-10T13:05:55.602Z,16.25
2022-09-10T13:08:30.917Z,16.37
2022-09-10T13:10:58.152Z,16.40
2022-09-10T13:13:54.527Z,16.47
2022-09-10T13:16:27.169Z,16.47
2022-09-10T13:19:13.996Z,16.48
2022-09-10T13:21:40.354Z,16.32
2022-09-10T13:24:35.649Z,16.47
2022-09-10T13:27:17.302Z,16.57
2022-09-10T13:29:47.460Z,16.55
2022-09-10T13:32:26.457Z,16.67
2022-09-10T13:35:17.528Z,16.62
2022-09-10T13:37:52.093Z,16.79
2022-09-10T13:40:37.142Z,16.82
2022-09-10T13:43:09.684Z,16.76
2022-09-10T13:45:51.462Z,16.89
2022-09-10T13:48:24.054Z,16.83
2022-09-10T13:51:14.168Z,16.95
2022-09-10T13:53:44.892Z,17.09
2022-09-10T13:56:32.195Z,17.04
2022-09-10T13:59:02.094Z,17.13
2022-09-10T14:01:48.327Z,17.19
2022-09-10T14:04:44.895Z,17.33
2022-09-10T14:07:25.579Z,17.47
2022-09-10T14:09:57.542Z,17.36
2022-09-10T14:12:28.169Z,17.48
2022-09-10T14:14:59.447Z,17.44
2022-09-10T14:17:31.378Z,17.51
2022-09-10T14:20:01.417Z,17.55
2022-09-10T14:22:31.921Z,17.67
2022-09-10T14:25:00.621Z,17.69
2022-09-10T14:27:38.960Z,17.79
2022-09-10T14:30:27.271Z,17.83
2022-09-10T14:32:53.661Z,17.68
2022-09-10T14:35:39.238Z,17.64
2022-09-10T14:38:27.501Z,17.77
2022-09-10T14:41:08.568Z,17.98
2022-09-10T14:43:40.684Z,17.91
2022-09-10T14:46:10.038Z,17.86
2022-09-10T14:48:42.371Z,17.86
2022-09-10T14:51:12.128Z,17.81
2022-09-10T14:53:40.343Z,17.83
2022-09-10T14:56:19.610Z,17.79
2022-09-10T14:58:46.067Z,17.88
2022-09-10T15:01:12.519Z,17.92
2022-09-10T15:03:40.668Z,18.04
2022-09-10T15:06:09.146Z,18.05
2022-09-10T15:08:35.587Z,17.95
2022-09-10T15:11:02.045Z,17.83
2022-09-10T15:13:28.874Z,17.74
2022-09-10T15:15:55.898Z,17.57
2022-09-10T15:18:22.621Z,17.41
2022-09-10T15:20:50.426Z,17.38
2022-09-10T15:23:18.195Z,17.36
2022-09-10T15:25:50.547Z,17.24
2022-09-10T15:28:16.912Z,17.20
2022-09-10T15:30:43.441Z,17.10
2022-09-10T15:33:14.585Z,17.04
2022-09-10T15:35:41.629Z,17.10
2022-09-10T15:38:13.307Z,17.14
2022-09-10T15:40:40.008Z,17.17
2022-09-10T15:43:06.735Z,17.11
2022-09-10T15:45:37.259Z,17.20
2022-09-10T15:48:04.302Z,17.27
2022-09-10T15:50:31.442Z,17.23
2022-09-10T15:52:58.795Z,17.10
2022-09-10T15:55:27.487Z,17.10
2022-09-10T15:57:53.892Z,17.09
2022-09-10T16:00:20.555Z,17.17
2022-09-10T16:02:53.004Z,17.20
2022-09-10T16:05:21.143Z,17.17
2022-09-10T16:07:49.559Z,17.11
2022-09-10T16:10:16.827Z,17.06
2022-09-10T16:12:43.200Z,17.11
2022-09-10T16:15:10.627Z,17.16
2022-09-10T16:17:37.030Z,17.20
2022-09-10T16:20:04.038Z,17.17
2022-09-10T16:22:30.916Z,17.27
2022-09-10T16:24:57.281Z,17.36
2022-09-10T16:27:24.472Z,17.47
2022-09-10T16:29:50.854Z,17.50
2022-09-10T16:32:17.223Z,17.53
2022-09-10T16:34:43.611Z,17.48
2022-09-10T16:37:10.062Z,17.53
2022-09-10T16:39:36.596Z,17.59
2022-09-10T16:42:03.175Z,17.59
2022-09-10T16:44:29.575Z,17.62
2022-09-10T16:46:57.680Z,17.65
2022-09-10T16:49:24.033Z,17.59
2022-09-10T16:51:50.695Z,17.64
2022-09-10T16:54:19.993Z,17.61
2022-09-10T16:56:48.304Z,17.59
2022-09-10T16:59:20.431Z,17.54
2022-09-10T17:01:48.367Z,17.54
2022-09-10T17:04:27.815Z,17.44
2022-09-10T17:06:56.060Z,17.41
2022-09-10T17:09:22.602Z,17.41
2022-09-10T17:11:49.150Z,17.34
2022-09-10T17:14:15.596Z,17.31
2022-09-10T17:16:43.318Z,17.31
2022-09-10T17:19:12.543Z,17.30
2022-09-10T17:21:40.556Z,17.30
2022-09-10T17:24:09.850Z,17.34
2022-09-10T17:26:37.222Z,17.30
2022-09-10T17:29:06.413Z,17.33
2022-09-10T17:31:33.324Z,17.38
2022-09-10T17:34:00.902Z,17.44
2022-09-10T17:36:28.407Z,17.54
2022-09-10T17:38:56.172Z,17.53
2022-09-10T17:41:23.856Z,17.59
2022-09-10T17:43:51.040Z,17.62
2022-09-10T17:46:20.209Z,17.51
2022-09-10T17:48:47.828Z,17.51
2022-09-10T17:51:22.699Z,17.46
2022-09-10T17:53:49.436Z,17.48
2022-09-10T17:57:36.051Z,17.54
2022-09-10T18:00:03.034Z,17.53
2022-09-10T18:02:29.547Z,17.61
2022-09-10T18:04:56.023Z,17.58
2022-09-10T18:07:22.421Z,17.55
2022-09-10T18:09:48.986Z,17.50
2022-09-10T18:12:16.125Z,17.50
2022-09-10T18:14:42.498Z,17.41
2022-09-10T18:17:08.970Z,17.40
2022-09-10T18:19:35.481Z,17.37
2022-09-10T18:22:02.101Z,17.30
2022-09-10T18:24:28.619Z,17.29
2022-09-10T18:26:55.391Z,17.21
2022-09-10T18:29:27.041Z,17.21
2022-09-10T18:31:55.930Z,17.21
2022-09-10T18:34:28.049Z,17.20
2022-09-10T18:36:57.621Z,17.24
2022-09-10T18:39:25.972Z,17.21
2022-09-10T18:41:52.493Z,17.33
2022-09-10T18:44:21.971Z,17.26
2022-09-10T18:46:50.460Z,17.21
2022-09-10T18:49:21.212Z,17.23
2022-09-10T18:51:48.408Z,17.21
2022-09-10T18:54:18.439Z,17.23
2022-09-10T18:56:46.879Z,17.24
2022-09-10T18:59:16.101Z,17.26
2022-09-10T19:01:45.549Z,17.23
2022-09-10T19:04:15.626Z,17.19
2022-09-10T19:06:44.677Z,17.19
2022-09-10T19:09:14.231Z,17.19
2022-09-10T19:11:42.898Z,17.23
2022-09-10T19:14:18.035Z,17.19
2022-09-10T19:16:46.745Z,17.17
2022-09-10T19:19:18.287Z,17.16
2022-09-10T19:21:49.989Z,17.17
2022-09-10T19:24:17.976Z,17.17
2022-09-10T19:26:45.298Z,17.21
2022-09-10T19:29:16.431Z,17.27
2022-09-10T19:31:44.563Z,17.26
2022-09-10T19:34:12.455Z,17.21
2022-09-10T19:36:39.326Z,17.16
2022-09-10T19:39:12.465Z,17.11
2022-09-10T19:41:40.951Z,17.17
2022-09-10T19:44:10.719Z,17.13
2022-09-10T19:46:38.625Z,17.13
2022-09-10T19:49:06.211Z,17.11
2022-09-10T19:51:35.074Z,17.11
2022-09-10T19:54:02.111Z,17.10
2022-09-10T19:56:31.673Z,17.10
2022-09-10T19:58:59.623Z,17.16
2022-09-10T20:01:31.171Z,17.07
2022-09-10T20:04:01.629Z,17.07
2022-09-10T20:06:29.831Z,17.06
2022-09-10T20:09:00.414Z,17.03
2022-09-10T20:11:33.017Z,17.09
2022-09-10T20:14:10.459Z,17.06
2022-09-10T20:16:45.079Z,17.11
2022-09-10T20:19:18.616Z,17.11
2022-09-10T20:21:47.724Z,17.09
2022-09-10T20:24:15.580Z,17.09
2022-09-10T20:26:43.702Z,17.09
2022-09-10T20:29:13.606Z,17.02
2022-09-10T20:31:41.459Z,17.00
2022-09-10T20:34:11.946Z,16.99
2022-09-10T20:36:39.309Z,16.98
2022-09-10T20:39:06.660Z,17.02
2022-09-10T20:41:33.317Z,17.00
2022-09-10T20:44:01.218Z,16.99
2022-09-10T20:46:29.446Z,16.92
2022-09-10T20:49:02.827Z,16.92
2022-09-10T20:51:38.734Z,16.88
2022-09-10T20:54:07.089Z,16.89
2022-09-10T20:56:33.555Z,16.89
2022-09-10T20:59:01.410Z,16.90
2022-09-10T21:01:31.038Z,16.93
2022-09-10T21:03:59.743Z,16.98
2022-09-10T21:06:29.043Z,16.95
2022-09-10T21:08:55.922Z,16.98
2022-09-10T21:11:23.830Z,16.93
2022-09-10T21:13:54.340Z,16.92
2022-09-10T21:16:28.691Z,16.92
2022-09-10T21:18:57.542Z,16.96
2022-09-10T21:21:26.307Z,16.89
2022-09-10T21:23:54.847Z,16.90
2022-09-10T21:26:25.230Z,16.86
2022-09-10T21:28:57.360Z,16.95
2022-09-10T21:31:28.211Z,17.03
2022-09-10T21:34:00.648Z,16.98
2022-09-10T21:36:29.730Z,16.92
2022-09-10T21:39:00.276Z,16.92
2022-09-10T21:41:35.463Z,16.93
2022-09-10T21:44:04.331Z,16.89
2022-09-10T21:46:32.261Z,16.92
2022-09-10T21:48:59.505Z,17.02
2022-09-10T21:51:26.512Z,16.95
2022-09-10T21:53:59.179Z,16.93
2022-09-10T21:56:27.635Z,16.90
2022-09-10T21:58:55.443Z,16.92
2022-09-10T22:01:24.440Z,16.96
2022-09-10T22:03:53.003Z,16.98
2022-09-10T22:06:23.094Z,16.95
2022-09-10T22:08:58.045Z,16.99
2022-09-10T22:11:37.170Z,16.96
2022-09-10T22:14:06.448Z,16.92
2022-09-10T22:16:34.740Z,16.89
2022-09-10T22:19:04.163Z,16.85
2022-09-10T22:21:31.056Z,16.89
2022-09-10T22:23:57.539Z,16.85
2022-09-10T22:26:28.099Z,16.83
2022-09-10T22:28:56.343Z,16.83
2022-09-10T22:31:25.314Z,16.86
2022-09-10T22:33:54.497Z,16.88
2022-09-10T22:36:26.637Z,16.86
2022-09-10T22:38:56.216Z,16.85
2022-09-10T22:41:23.189Z,16.88
2022-09-10T22:43:50.238Z,16.86
2022-09-10T22:46:17.762Z,16.89
2022-09-10T22:48:45.368Z,16.86
2022-09-10T22:51:13.909Z,16.79
2022-09-10T22:53:41.863Z,16.80
2022-09-10T22:56:09.159Z,16.80
2022-09-10T22:58:39.576Z,16.79
2022-09-10T23:01:08.359Z,16.73
2022-09-10T23:03:35.753Z,16.69
2022-09-10T23:06:09.006Z,16.69
2022-09-10T23:08:36.590Z,16.68
2022-09-10T23:11:09.063Z,16.62
2022-09-10T23:13:36.012Z,16.62
2022-09-10T23:16:28.906Z,16.67
2022-09-10T23:18:57.327Z,16.69
2022-09-10T23:21:25.391Z,16.73
2022-09-10T23:23:54.604Z,16.65
2022-09-10T23:26:22.188Z,16.58
2022-09-10T23:28:49.509Z,16.42
2022-09-10T23:31:19.321Z,16.55
2022-09-10T23:33:48.472Z,16.57
2022-09-10T23:36:15.020Z,16.45
2022-09-10T23:38:42.589Z,16.41
2022-09-10T23:41:11.743Z,16.51
2022-09-10T23:43:39.287Z,16.55
2022-09-10T23:46:07.427Z,16.51
2022-09-10T23:48:33.849Z,16.58
2022-09-10T23:51:01.509Z,16.59
2022-09-10T23:53:28.625Z,16.61
2022-09-10T23:55:55.019Z,16.62
